createdAt,value
2018-12-18T00:02:17.451Z,8.87
2018-12-18T00:04:45.038Z,10.57
2018-12-18T00:07:12.723Z,10.37
2018-12-18T00:09:40.244Z,10.83
2018-12-18T00:12:07.956Z,10.80
2018-12-18T00:14:35.618Z,10.87
2018-12-18T00:17:03.251Z,10.53
2018-12-18T00:19:35.684Z,11.80
2018-12-18T00:22:03.346Z,10.80
2018-12-18T00:24:30.859Z,10.83
2018-12-18T00:26:58.494Z,11.93
2018-12-18T00:29:26.386Z,12.80
2018-12-18T00:31:53.889Z,11.27
2018-12-18T00:34:21.427Z,11.67
2018-12-18T00:36:50.302Z,11.97
2018-12-18T00:39:17.785Z,13.17
2018-12-18T00:41:46.636Z,12.80
2018-12-18T00:44:14.205Z,14.00
2018-12-18T00:46:42.776Z,12.40
2018-12-18T00:49:10.381Z,13.57
2018-12-18T00:51:37.879Z,12.60
2018-12-18T00:54:05.527Z,14.37
2018-12-18T00:56:33.703Z,11.70
2018-12-18T00:59:02.411Z,13.83
2018-12-18T01:01:29.974Z,13.10
2018-12-18T01:03:58.048Z,13.43
2018-12-18T01:06:25.555Z,12.73
2018-12-18T01:08:53.056Z,14.20
2018-12-18T01:11:23.906Z,13.83
2018-12-18T01:13:51.410Z,14.07
2018-12-18T01:16:18.933Z,13.50
2018-12-18T01:18:46.498Z,14.23
2018-12-18T01:21:14.013Z,13.93
2018-12-18T01:23:41.610Z,14.67
2018-12-18T01:26:09.501Z,14.13
2018-12-18T01:28:41.556Z,15.30
2018-12-18T01:31:09.052Z,11.20
2018-12-18T01:33:36.570Z,14.70
2018-12-18T01:36:04.054Z,14.80
2018-12-18T01:38:33.510Z,15.53
2018-12-18T01:41:01.335Z,15.53
2018-12-18T01:43:29.264Z,14.40
2018-12-18T01:45:58.280Z,13.33
2018-12-18T01:48:26.172Z,14.43
2018-12-18T01:50:53.682Z,12.60
2018-12-18T01:53:21.307Z,14.03
2018-12-18T01:55:48.938Z,13.63
2018-12-18T01:58:16.553Z,16.13
2018-12-18T02:00:44.137Z,15.43
2018-12-18T02:03:11.876Z,16.77
2018-12-18T02:05:39.394Z,16.03
2018-12-18T02:08:06.902Z,14.40
2018-12-18T02:13:29.777Z,13.87
2018-12-18T02:15:57.270Z,14.50
2018-12-18T02:18:25.332Z,14.10
2018-12-18T02:20:53.026Z,15.60
2018-12-18T02:23:20.742Z,14.87
2018-12-18T02:25:48.276Z,14.57
2018-12-18T02:28:15.904Z,14.43
2018-12-18T02:30:43.425Z,14.90
2018-12-18T02:33:10.947Z,15.93
2018-12-18T02:35:42.033Z,13.40
2018-12-18T02:38:31.090Z,15.00
2018-12-18T02:40:58.627Z,13.60
2018-12-18T02:43:26.113Z,15.20
2018-12-18T02:45:53.883Z,14.70
2018-12-18T02:48:21.389Z,14.10
2018-12-18T02:50:48.999Z,14.50
2018-12-18T02:53:16.633Z,13.47
2018-12-18T02:55:45.437Z,13.47
2018-12-18T02:58:13.021Z,14.37
2018-12-18T03:00:40.684Z,12.23
2018-12-18T03:03:11.665Z,13.77
2018-12-18T03:05:39.643Z,16.23
2018-12-18T03:08:08.508Z,15.53
2018-12-18T03:10:36.218Z,15.60
2018-12-18T03:13:09.423Z,15.27
2018-12-18T03:15:37.808Z,16.50
2018-12-18T03:18:05.385Z,15.50
2018-12-18T03:23:29.319Z,14.73
2018-12-18T03:26:02.265Z,14.13
2018-12-18T03:28:29.891Z,15.00
2018-12-18T03:30:57.676Z,15.70
2018-12-18T03:33:25.678Z,15.30
2018-12-18T03:35:53.334Z,16.93
2018-12-18T03:38:20.878Z,16.03
2018-12-18T03:40:48.462Z,15.07
2018-12-18T03:43:16.907Z,14.73
2018-12-18T03:45:44.982Z,15.90
2018-12-18T03:48:14.010Z,14.30
2018-12-18T03:50:42.616Z,16.50
2018-12-18T03:53:11.324Z,14.97
2018-12-18T03:55:38.972Z,14.23
2018-12-18T03:58:06.492Z,14.37
2018-12-18T04:00:34.962Z,15.20
2018-12-18T04:03:02.885Z,16.17
2018-12-18T04:05:30.499Z,16.57
2018-12-18T04:07:58.078Z,15.40
2018-12-18T04:10:32.600Z,15.70
2018-12-18T04:13:00.146Z,15.80
2018-12-18T04:15:27.725Z,14.63
2018-12-18T04:17:55.441Z,16.20
2018-12-18T04:20:23.309Z,15.60
2018-12-18T04:22:50.940Z,16.07
2018-12-18T04:25:18.478Z,15.03
2018-12-18T04:27:47.028Z,14.20
2018-12-18T04:30:14.616Z,15.43
2018-12-18T04:32:42.215Z,16.17
2018-12-18T04:35:13.336Z,15.57
2018-12-18T04:37:42.234Z,18.20
2018-12-18T04:40:10.292Z,15.30
2018-12-18T04:42:37.859Z,16.13
2018-12-18T04:45:09.906Z,14.67
2018-12-18T04:47:37.597Z,16.57
2018-12-18T04:50:06.354Z,15.77
2018-12-18T04:52:33.913Z,15.00
2018-12-18T04:55:05.468Z,15.17
2018-12-18T04:57:33.087Z,16.23
2018-12-18T05:00:00.578Z,14.50
2018-12-18T05:02:29.365Z,16.87
2018-12-18T05:04:56.877Z,13.37
2018-12-18T05:07:24.395Z,15.00
2018-12-18T05:09:51.929Z,14.13
2018-12-18T05:12:19.979Z,14.40
2018-12-18T05:14:47.539Z,13.60
2018-12-18T05:17:15.792Z,15.07
2018-12-18T05:19:43.291Z,15.40
2018-12-18T05:22:10.854Z,15.87
2018-12-18T05:24:39.759Z,17.23
2018-12-18T05:27:07.483Z,18.90
2018-12-18T05:29:34.993Z,16.37
2018-12-18T05:32:02.543Z,15.97
2018-12-18T05:34:30.184Z,17.00
2018-12-18T05:36:57.901Z,15.20
2018-12-18T05:39:25.470Z,18.10
2018-12-18T05:41:52.984Z,14.57
2018-12-18T05:44:20.480Z,15.77
2018-12-18T05:46:55.611Z,14.27
2018-12-18T05:49:23.596Z,13.90
2018-12-18T05:51:51.126Z,14.23
2018-12-18T05:54:19.108Z,13.67
2018-12-18T05:56:47.752Z,15.10
2018-12-18T05:59:15.725Z,14.50
2018-12-18T06:01:43.265Z,14.73
2018-12-18T06:07:03.857Z,16.67
2018-12-18T06:09:31.385Z,14.97
2018-12-18T06:11:58.897Z,17.30
2018-12-18T06:14:26.469Z,16.87
2018-12-18T06:16:54.973Z,17.40
2018-12-18T06:19:22.600Z,18.13
2018-12-18T06:21:50.122Z,16.70
2018-12-18T06:24:23.742Z,15.23
2018-12-18T06:26:51.243Z,15.80
2018-12-18T06:29:23.169Z,17.30
2018-12-18T06:31:50.666Z,16.37
2018-12-18T06:34:18.520Z,14.97
2018-12-18T06:36:47.395Z,15.00
2018-12-18T06:39:14.967Z,16.23
2018-12-18T06:41:42.470Z,16.40
2018-12-18T06:44:10.023Z,15.63
2018-12-18T06:46:38.569Z,14.63
2018-12-18T06:49:06.109Z,16.73
2018-12-18T06:51:34.003Z,15.70
2018-12-18T06:54:01.503Z,14.20
2018-12-18T06:56:35.543Z,16.27
2018-12-18T06:59:03.065Z,15.43
2018-12-18T07:01:30.566Z,14.07
2018-12-18T07:04:02.003Z,13.23
2018-12-18T07:06:29.511Z,13.03
2018-12-18T07:08:57.045Z,14.00
2018-12-18T07:14:18.381Z,16.63
2018-12-18T07:16:45.894Z,16.20
2018-12-18T07:19:13.699Z,16.93
2018-12-18T07:21:41.201Z,18.30
2018-12-18T07:24:14.044Z,15.13
2018-12-18T07:26:38.603Z,16.50
2018-12-18T07:29:06.566Z,15.37
2018-12-18T07:31:49.484Z,14.30
2018-12-18T07:34:17.354Z,15.20
2018-12-18T07:36:44.859Z,14.30
2018-12-18T07:39:12.370Z,16.47
2018-12-18T07:42:03.700Z,15.40
2018-12-18T07:44:31.206Z,12.43
2018-12-18T07:46:58.801Z,16.23
2018-12-18T07:49:26.337Z,15.50
2018-12-18T07:52:03.924Z,15.23
2018-12-18T07:54:31.459Z,12.67
2018-12-18T07:56:58.939Z,12.90
2018-12-18T07:59:41.631Z,13.83
2018-12-18T08:02:09.198Z,14.83
2018-12-18T08:04:36.688Z,14.23
2018-12-18T08:07:18.910Z,13.60
2018-12-18T08:09:47.359Z,12.43
2018-12-18T08:12:14.970Z,12.80
2018-12-18T08:14:42.483Z,11.03
2018-12-18T08:17:15.958Z,11.97
2018-12-18T08:19:43.473Z,10.50
2018-12-18T08:22:10.985Z,11.33
2018-12-18T08:24:58.070Z,9.97
2018-12-18T08:27:25.565Z,11.27
2018-12-18T08:29:53.047Z,11.63
2018-12-18T08:32:27.681Z,11.63
2018-12-18T08:34:55.175Z,10.37
2018-12-18T08:37:22.664Z,12.30
2018-12-18T08:39:50.175Z,10.70
2018-12-18T08:42:18.764Z,10.33
2018-12-18T08:44:46.246Z,12.03
2018-12-18T08:47:13.772Z,14.67
2018-12-18T08:49:41.384Z,16.73
2018-12-18T08:52:08.897Z,18.93
2018-12-18T08:54:36.561Z,17.70
2018-12-18T08:57:24.255Z,16.03
2018-12-18T08:59:51.776Z,15.40
2018-12-18T09:02:19.267Z,16.00
2018-12-18T09:04:46.754Z,29.60
2018-12-18T09:07:20.675Z,30.77
2018-12-18T09:09:48.202Z,29.27
2018-12-18T09:12:16.367Z,20.73
2018-12-18T09:14:57.499Z,18.90
2018-12-18T09:17:30.719Z,18.40
2018-12-18T09:19:58.338Z,16.70
2018-12-18T09:22:25.875Z,16.63
2018-12-18T09:24:53.375Z,14.60
2018-12-18T09:27:22.260Z,16.80
2018-12-18T09:29:52.471Z,17.53
2018-12-18T09:32:26.994Z,14.50
2018-12-18T09:34:55.045Z,17.33
2018-12-18T09:37:22.595Z,15.70
2018-12-18T10:06:04.592Z,13.40
2018-12-18T10:08:32.307Z,13.40
2018-12-18T10:10:59.989Z,11.67
2018-12-18T10:13:28.321Z,11.80
2018-12-18T10:15:57.519Z,13.73
2018-12-18T10:18:25.360Z,21.30
2018-12-18T10:20:53.027Z,30.00
2018-12-18T10:23:20.687Z,14.60
2018-12-18T10:25:55.653Z,17.10
2018-12-18T10:28:23.243Z,16.17
2018-12-18T10:31:03.084Z,14.27
2018-12-18T10:33:30.689Z,15.70
2018-12-18T10:39:07.594Z,13.90
2018-12-18T10:41:35.234Z,15.57
2018-12-18T10:44:08.578Z,13.83
2018-12-18T10:46:38.609Z,14.20
2018-12-18T10:49:06.682Z,14.07
2018-12-18T10:51:34.235Z,15.80
2018-12-18T10:54:05.289Z,13.80
2018-12-18T10:56:32.858Z,13.77
2018-12-18T10:59:00.412Z,13.27
2018-12-18T11:01:33.587Z,14.10
2018-12-18T11:04:01.209Z,14.27
2018-12-18T11:06:30.296Z,13.37
2018-12-18T11:08:58.717Z,11.63
2018-12-18T11:11:27.377Z,12.80
2018-12-18T11:13:54.884Z,15.17
2018-12-18T11:16:23.194Z,16.90
2018-12-18T11:18:50.795Z,17.17
2018-12-18T11:21:19.380Z,16.30
2018-12-18T11:23:46.994Z,18.47
2018-12-18T11:26:15.653Z,16.33
2018-12-18T11:28:43.953Z,15.33
2018-12-18T11:31:13.549Z,17.00
2018-12-18T11:33:41.082Z,15.10
2018-12-18T11:36:08.790Z,12.67
2018-12-18T11:38:37.650Z,13.77
2018-12-18T11:41:05.990Z,14.70
2018-12-18T11:43:33.563Z,12.93
2018-12-18T11:46:07.321Z,14.33
2018-12-18T11:48:35.822Z,12.43
2018-12-18T11:51:03.422Z,12.10
2018-12-18T11:53:48.013Z,10.43
2018-12-18T11:56:15.722Z,10.40
2018-12-18T11:58:43.402Z,11.73
2018-12-18T12:01:10.979Z,10.93
2018-12-18T12:03:44.665Z,11.87
2018-12-18T12:06:12.173Z,13.20
2018-12-18T12:08:40.155Z,13.63
2018-12-18T12:11:07.661Z,13.37
2018-12-18T12:13:35.242Z,12.20
2018-12-18T12:16:03.204Z,11.77
2018-12-18T12:18:31.276Z,10.57
2018-12-18T12:21:20.221Z,13.60
2018-12-18T12:23:47.705Z,10.40
2018-12-18T12:26:20.803Z,10.20
2018-12-18T12:28:48.314Z,13.10
2018-12-18T12:31:22.132Z,11.27
2018-12-18T12:33:49.638Z,11.20
2018-12-18T12:36:17.210Z,11.53
2018-12-18T12:38:45.121Z,11.30
2018-12-18T12:41:12.604Z,10.70
2018-12-18T12:43:40.581Z,8.90
2018-12-18T12:46:09.474Z,9.63
2018-12-18T12:48:52.959Z,9.30
2018-12-18T12:51:20.564Z,10.33
2018-12-18T12:53:48.058Z,9.30
2018-12-18T12:56:16.778Z,10.20
2018-12-18T12:58:51.857Z,9.10
2018-12-18T13:01:19.758Z,9.13
2018-12-18T13:03:47.276Z,10.33
2018-12-18T13:06:21.577Z,9.20
2018-12-18T13:08:49.101Z,8.63
2018-12-18T13:11:16.601Z,9.30
2018-12-18T13:13:54.303Z,8.70
2018-12-18T13:16:21.792Z,8.10
2018-12-18T13:18:49.290Z,9.20
2018-12-18T13:21:16.825Z,8.20
2018-12-18T13:23:56.273Z,7.90
2018-12-18T13:26:23.826Z,8.57
2018-12-18T13:28:51.312Z,8.03
2018-12-18T13:31:19.719Z,7.80
2018-12-18T13:33:47.436Z,7.50
2018-12-18T13:36:14.944Z,8.00
2018-12-18T13:38:43.027Z,7.80
2018-12-18T13:41:13.810Z,7.50
2018-12-18T13:43:41.476Z,7.03
2018-12-18T13:46:14.866Z,7.37
2018-12-18T13:48:38.651Z,7.30
2018-12-18T13:51:06.125Z,6.70
2018-12-18T13:53:33.603Z,6.90
2018-12-18T13:56:04.354Z,7.57
2018-12-18T13:58:31.851Z,6.20
2018-12-18T14:00:59.450Z,6.90
2018-12-18T14:03:27.324Z,7.43
2018-12-18T14:05:54.942Z,7.00
2018-12-18T14:08:22.394Z,6.13
2018-12-18T14:10:49.899Z,5.97
2018-12-18T14:13:23.460Z,6.70
2018-12-18T14:15:52.331Z,5.67
2018-12-18T14:18:19.924Z,6.43
2018-12-18T14:20:47.407Z,6.53
2018-12-18T14:23:14.936Z,7.77
2018-12-18T14:25:42.544Z,7.70
2018-12-18T14:28:10.019Z,6.17
2018-12-18T14:30:37.707Z,6.60
2018-12-18T14:33:05.283Z,5.53
2018-12-18T14:35:32.772Z,6.47
2018-12-18T14:38:00.416Z,5.60
2018-12-18T14:40:28.034Z,5.97
2018-12-18T14:42:55.553Z,5.67
2018-12-18T14:45:23.106Z,6.63
2018-12-18T14:47:50.793Z,6.63
2018-12-18T14:50:18.273Z,7.13
2018-12-18T14:52:45.795Z,6.07
2018-12-18T14:55:13.306Z,6.03
2018-12-18T14:57:40.832Z,6.30
2018-12-18T15:00:08.802Z,6.70
2018-12-18T15:02:36.305Z,7.10
2018-12-18T15:05:04.321Z,7.17
2018-12-18T15:07:31.836Z,6.30
2018-12-18T15:10:00.152Z,5.10
2018-12-18T15:12:27.652Z,5.33
2018-12-18T15:14:55.727Z,5.50
2018-12-18T15:17:23.205Z,6.43
2018-12-18T15:19:50.701Z,5.40
2018-12-18T15:22:18.273Z,6.33
2018-12-18T15:24:45.847Z,6.73
2018-12-18T15:27:13.390Z,6.83
2018-12-18T15:29:40.971Z,5.87
2018-12-18T15:32:08.514Z,6.40
2018-12-18T15:34:37.005Z,6.30
2018-12-18T15:37:09.583Z,8.60
2018-12-18T15:39:34.109Z,7.20
2018-12-18T15:42:02.072Z,7.87
2018-12-18T15:44:29.742Z,8.77
2018-12-18T15:46:57.246Z,8.70
2018-12-18T15:49:24.784Z,9.30
2018-12-18T15:51:52.336Z,9.87
2018-12-18T15:54:20.163Z,8.83
2018-12-18T15:56:47.934Z,10.50
2018-12-18T15:59:15.672Z,10.10
2018-12-18T16:01:43.182Z,10.13
2018-12-18T16:04:10.860Z,9.67
2018-12-18T16:06:38.359Z,8.30
2018-12-18T16:09:07.656Z,8.90
2018-12-18T16:11:35.237Z,9.90
2018-12-18T16:14:02.973Z,9.60
2018-12-18T16:16:30.711Z,10.23
2018-12-18T16:18:58.246Z,10.10
2018-12-18T16:21:26.203Z,11.90
2018-12-18T16:23:54.673Z,11.10
2018-12-18T16:26:22.541Z,11.93
2018-12-18T16:28:50.158Z,11.53
2018-12-18T16:31:17.792Z,11.07
2018-12-18T16:33:45.636Z,12.20
2018-12-18T16:36:13.153Z,11.53
2018-12-18T16:38:40.738Z,11.60
2018-12-18T16:41:08.378Z,11.60
2018-12-18T16:43:35.941Z,11.00
2018-12-18T16:46:03.609Z,12.77
2018-12-18T16:48:32.215Z,11.20
2018-12-18T16:50:59.857Z,11.30
2018-12-18T16:53:27.421Z,12.53
2018-12-18T16:55:55.043Z,12.93
2018-12-18T16:58:22.787Z,11.70
2018-12-18T17:00:50.339Z,12.20
2018-12-18T17:03:17.841Z,12.90
2018-12-18T17:05:45.365Z,14.17
2018-12-18T17:08:13.110Z,12.40
2018-12-18T17:10:41.471Z,13.50
2018-12-18T17:13:08.976Z,13.30
2018-12-18T17:15:36.513Z,11.67
2018-12-18T17:18:04.180Z,11.53
2018-12-18T17:20:32.052Z,10.60
2018-12-18T17:22:59.689Z,12.00
2018-12-18T17:25:27.246Z,12.00
2018-12-18T17:27:54.754Z,10.77
2018-12-18T17:30:22.442Z,13.63
2018-12-18T17:32:50.105Z,14.07
2018-12-18T17:35:17.620Z,19.70
2018-12-18T17:37:45.130Z,17.53
2018-12-18T17:40:12.639Z,20.03
2018-12-18T17:42:40.158Z,21.33
2018-12-18T17:45:07.834Z,22.50
2018-12-18T17:47:35.411Z,21.30
2018-12-18T17:50:03.791Z,20.50
2018-12-18T17:52:31.293Z,27.50
2018-12-18T17:54:59.295Z,25.67
2018-12-18T17:57:26.880Z,27.00
2018-12-18T17:59:54.510Z,26.97
2018-12-18T18:02:22.006Z,23.37
2018-12-18T18:04:49.758Z,23.93
2018-12-18T18:07:17.389Z,24.57
2018-12-18T18:09:45.039Z,21.20
2018-12-18T18:12:12.553Z,21.70
2018-12-18T18:14:40.128Z,19.73
2018-12-18T18:17:07.688Z,20.47
2018-12-18T18:19:35.220Z,19.47
2018-12-18T18:22:02.935Z,21.90
2018-12-18T18:24:32.093Z,21.40
2018-12-18T18:26:59.577Z,24.97
2018-12-18T18:29:27.165Z,19.53
2018-12-18T18:31:54.721Z,20.73
2018-12-18T18:34:22.514Z,19.67
2018-12-18T18:36:50.386Z,19.93
2018-12-18T18:39:18.333Z,20.83
2018-12-18T18:41:46.008Z,19.93
2018-12-18T18:44:13.512Z,19.47
2018-12-18T18:46:41.077Z,19.37
2018-12-18T18:49:08.746Z,17.77
2018-12-18T18:51:36.243Z,19.40
2018-12-18T18:54:04.570Z,18.90
2018-12-18T18:56:32.336Z,19.27
2018-12-18T18:58:59.968Z,18.80
2018-12-18T19:01:27.544Z,18.60
2018-12-18T19:03:56.096Z,19.17
2018-12-18T19:06:24.223Z,25.47
2018-12-18T19:08:51.703Z,22.50
2018-12-18T19:11:19.205Z,20.40
2018-12-18T19:13:46.788Z,18.80
2018-12-18T19:16:14.384Z,19.67
2018-12-18T19:18:41.967Z,20.40
2018-12-18T19:21:09.578Z,17.87
2018-12-18T19:23:37.241Z,18.60
2018-12-18T19:26:05.678Z,18.60
2018-12-18T19:28:33.467Z,15.50
2018-12-18T19:31:01.074Z,14.50
2018-12-18T19:33:28.720Z,15.07
2018-12-18T19:35:56.354Z,15.30
2018-12-18T19:38:23.942Z,12.70
2018-12-18T19:40:51.617Z,13.27
2018-12-18T19:43:19.432Z,14.00
2018-12-18T19:45:48.529Z,13.67
2018-12-18T19:48:16.796Z,13.60
2018-12-18T19:50:44.735Z,12.80
2018-12-18T19:53:12.933Z,12.83
2018-12-18T19:55:40.799Z,13.30
2018-12-18T19:58:08.398Z,13.03
2018-12-18T20:00:36.139Z,13.20
2018-12-18T20:03:04.399Z,12.10
2018-12-18T20:05:32.107Z,12.27
2018-12-18T20:07:59.707Z,12.07
2018-12-18T20:10:27.253Z,11.50
2018-12-18T20:12:54.903Z,13.03
2018-12-18T20:15:22.561Z,12.37
2018-12-18T20:17:50.079Z,12.93
2018-12-18T20:20:17.740Z,12.27
2018-12-18T20:22:45.394Z,12.10
2018-12-18T20:25:12.993Z,12.40
2018-12-18T20:27:40.533Z,12.10
2018-12-18T20:30:08.289Z,12.10
2018-12-18T20:32:35.784Z,12.00
2018-12-18T20:35:03.528Z,12.03
2018-12-18T20:37:31.155Z,13.20
2018-12-18T20:39:58.752Z,14.70
2018-12-18T20:42:26.401Z,13.20
2018-12-18T20:44:54.337Z,12.27
2018-12-18T20:47:22.564Z,13.83
2018-12-18T20:49:50.330Z,12.47
2018-12-18T20:52:18.311Z,12.70
2018-12-18T20:54:45.932Z,12.27
2018-12-18T20:57:13.645Z,11.43
2018-12-18T20:59:41.284Z,11.77
2018-12-18T21:02:08.932Z,11.50
2018-12-18T21:04:37.955Z,13.60
2018-12-18T21:07:05.764Z,13.07
2018-12-18T21:09:33.669Z,13.70
2018-12-18T21:12:01.194Z,13.27
2018-12-18T21:14:29.965Z,13.23
2018-12-18T21:16:57.559Z,12.13
2018-12-18T21:19:25.078Z,11.93
2018-12-18T21:21:52.733Z,10.67
2018-12-18T21:24:20.295Z,11.70
2018-12-18T21:26:47.976Z,10.70
2018-12-18T21:29:15.551Z,10.70
2018-12-18T21:31:43.086Z,12.17
2018-12-18T21:34:10.589Z,12.40
2018-12-18T21:36:38.753Z,12.60
2018-12-18T21:39:07.709Z,12.57
2018-12-18T21:41:35.616Z,13.67
2018-12-18T21:44:03.515Z,13.07
2018-12-18T21:46:31.684Z,12.67
2018-12-18T21:48:59.299Z,11.33
2018-12-18T21:51:26.839Z,12.90
2018-12-18T21:53:54.385Z,10.70
2018-12-18T21:56:22.071Z,13.10
2018-12-18T21:58:49.714Z,11.97
2018-12-18T22:01:17.500Z,12.17
2018-12-18T22:03:45.004Z,12.17
2018-12-18T22:06:12.704Z,11.40
2018-12-18T22:08:40.185Z,11.00
2018-12-18T22:11:07.816Z,11.07
2018-12-18T22:13:35.378Z,10.73
2018-12-18T22:16:02.871Z,10.87
2018-12-18T22:18:30.585Z,10.57
2018-12-18T22:20:58.235Z,9.40
2018-12-18T22:23:25.901Z,9.47
2018-12-18T22:25:53.475Z,9.30
2018-12-18T22:28:21.032Z,11.00
2018-12-18T22:30:48.615Z,9.57
2018-12-18T22:33:16.377Z,10.63
2018-12-18T22:35:43.963Z,9.70
2018-12-18T22:38:11.685Z,11.03
2018-12-18T22:40:39.289Z,9.13
2018-12-18T22:43:06.958Z,9.33
2018-12-18T22:45:34.592Z,9.27
2018-12-18T22:48:02.206Z,9.13
2018-12-18T22:50:29.750Z,10.00
2018-12-18T22:52:57.403Z,11.47
2018-12-18T22:55:24.969Z,10.87
2018-12-18T22:57:52.611Z,8.57
2018-12-18T23:00:26.109Z,9.73
2018-12-18T23:02:53.586Z,9.57
2018-12-18T23:05:21.127Z,9.13
2018-12-18T23:07:48.644Z,9.30
2018-12-18T23:10:16.291Z,10.40
2018-12-18T23:12:43.826Z,10.70
2018-12-18T23:15:11.501Z,9.67
2018-12-18T23:17:38.970Z,9.50
2018-12-18T23:20:06.552Z,10.57
2018-12-18T23:22:34.229Z,8.90
2018-12-18T23:25:01.937Z,7.10
2018-12-18T23:27:29.526Z,9.33
2018-12-18T23:29:57.265Z,10.00
2018-12-18T23:32:24.787Z,9.50
2018-12-18T23:34:52.396Z,8.90
2018-12-18T23:37:20.083Z,9.10
2018-12-18T23:39:47.671Z,8.30
2018-12-18T23:42:15.260Z,7.90
2018-12-18T23:44:42.847Z,8.03
2018-12-18T23:47:10.447Z,7.30
2018-12-18T23:49:37.939Z,8.03
2018-12-18T23:52:06.414Z,7.10
2018-12-18T23:54:33.933Z,7.47
2018-12-18T23:57:01.534Z,7.27
2018-12-18T23:59:29.122Z,8.27
